createdAt,value
2023-04-01T00:01:43.489Z,98203.78
2023-04-01T00:06:44.914Z,98209.81
2023-04-01T00:11:46.401Z,98196.16
2023-04-01T00:16:47.836Z,98202.97
2023-04-01T00:21:49.247Z,98204.06
2023-04-01T00:26:50.617Z,98200.28
2023-04-01T00:31:52.199Z,98201.31
2023-04-01T00:36:53.700Z,98199.41
2023-04-01T00:41:55.117Z,98204.44
2023-04-01T00:46:56.894Z,98200.81
2023-04-01T00:51:58.462Z,98205.69
2023-04-01T00:57:18.930Z,98209.53
2023-04-01T01:02:20.378Z,98205.47
2023-04-01T01:07:40.159Z,98207.63
2023-04-01T01:12:56.677Z,98209.53
2023-04-01T01:18:28.842Z,98213.13
2023-04-01T01:24:08.121Z,98203.03
2023-04-01T01:29:21.512Z,98211.50
2023-04-01T01:34:26.426Z,98193.50
2023-04-01T01:39:30.102Z,98197.00
2023-04-01T01:44:31.556Z,98187.16
2023-04-01T01:49:33.304Z,98199.16
2023-04-01T01:54:34.710Z,98202.72
2023-04-01T01:59:36.820Z,98196.69
2023-04-01T02:04:40.209Z,98207.94
2023-04-01T02:09:41.678Z,98197.25
2023-04-01T02:14:58.219Z,98200.50
2023-04-01T02:20:07.189Z,98202.72
2023-04-01T02:25:11.297Z,98203.31
2023-04-01T02:30:13.714Z,98205.97
2023-04-01T02:35:16.405Z,98204.38
2023-04-01T02:40:18.223Z,98210.41
2023-04-01T02:45:19.703Z,98213.38
2023-04-01T02:50:21.110Z,98215.81
2023-04-01T02:55:22.551Z,98218.84
2023-04-01T03:00:23.963Z,98218.03
2023-04-01T03:05:25.403Z,98224.53
2023-04-01T03:10:26.810Z,98224.59
2023-04-01T03:15:28.198Z,98232.25
2023-04-01T03:20:29.654Z,98229.78
2023-04-01T03:25:31.720Z,98226.50
2023-04-01T03:30:34.502Z,98232.25
2023-04-01T03:35:36.903Z,98236.03
2023-04-01T03:40:39.221Z,98239.88
2023-04-01T03:45:50.368Z,98239.94
2023-04-01T03:50:51.855Z,98242.88
2023-04-01T03:55:53.331Z,98254.06
2023-04-01T04:00:55.537Z,98252.22
2023-04-01T04:05:57.413Z,98254.13
2023-04-01T04:10:58.851Z,98252.44
2023-04-01T04:16:00.356Z,98253.81
2023-04-01T04:21:01.799Z,98267.78
2023-04-01T04:26:13.041Z,98273.19
2023-04-01T04:31:19.861Z,98275.69
2023-04-01T04:36:21.472Z,98275.97
2023-04-01T04:41:22.993Z,98277.03
2023-04-01T04:46:24.732Z,98281.97
2023-04-01T04:51:26.247Z,98279.81
2023-04-01T04:56:27.635Z,98285.00
2023-04-01T05:01:29.106Z,98281.97
2023-04-01T05:06:30.749Z,98295.63
2023-04-01T05:11:32.196Z,98288.53
2023-04-01T05:16:33.638Z,98298.31
2023-04-01T05:21:35.034Z,98291.81
2023-04-01T05:26:37.592Z,98311.19
2023-04-01T05:31:38.982Z,98314.19
2023-04-01T05:36:40.872Z,98307.91
2023-04-01T05:41:42.447Z,98321.88
2023-04-01T05:46:43.838Z,98325.41
2023-04-01T05:51:45.334Z,98328.94
2023-04-01T05:56:48.588Z,98330.88
2023-04-01T06:01:50.437Z,98333.63
2023-04-01T06:06:52.692Z,98332.22
2023-04-01T06:12:01.579Z,98328.72
2023-04-01T06:17:06.223Z,98326.50
2023-04-01T06:22:34.729Z,98326.75
2023-04-01T06:28:23.285Z,98339.59
2023-04-01T06:33:47.350Z,98335.22
2023-04-01T06:39:08.901Z,98336.88
2023-04-01T06:44:44.205Z,98338.53
2023-04-01T06:50:04.063Z,98337.72
2023-04-01T06:55:22.936Z,98339.31
2023-04-01T07:00:30.548Z,98342.34
2023-04-01T07:05:32.305Z,98347.53
2023-04-01T07:10:43.994Z,98349.97
2023-04-01T07:15:51.366Z,98344.75
2023-04-01T07:20:52.764Z,98362.84
2023-04-01T07:26:00.815Z,98368.00
2023-04-01T07:31:12.426Z,98363.63
2023-04-01T07:36:27.608Z,98371.31
2023-04-01T07:42:00.161Z,98379.78
2023-04-01T07:47:01.408Z,98380.59
2023-04-01T07:52:09.645Z,98378.13
2023-04-01T07:57:32.492Z,98385.22
2023-04-01T08:03:03.848Z,98387.41
2023-04-01T08:08:27.237Z,98383.84
2023-04-01T08:13:59.378Z,98396.69
2023-04-01T08:19:18.818Z,98391.47
2023-04-01T08:24:46.407Z,98408.44
2023-04-01T08:30:00.802Z,98401.06
2023-04-01T08:35:09.644Z,98406.00
2023-04-01T08:40:38.878Z,98404.31
2023-04-01T08:46:18.412Z,98407.34
2023-04-01T08:51:47.038Z,98413.91
2023-04-01T08:57:20.745Z,98413.34
2023-04-01T09:03:10.405Z,98406.81
2023-04-01T09:08:49.403Z,98413.38
2023-04-01T09:14:07.937Z,98407.06
2023-04-01T09:19:17.961Z,98411.47
2023-04-01T09:24:25.385Z,98415.25
2023-04-01T09:29:55.190Z,98422.38
2023-04-01T09:35:25.805Z,98429.72
2023-04-01T09:40:48.736Z,98422.09
2023-04-01T09:46:12.963Z,98432.22
2023-04-01T09:51:38.582Z,98429.22
2023-04-01T09:56:46.020Z,98430.03
2023-04-01T10:02:14.246Z,98431.44
2023-04-01T10:07:46.458Z,98437.69
2023-04-01T10:12:56.702Z,98440.97
2023-04-01T10:18:24.190Z,98439.88
2023-04-01T10:23:40.867Z,98448.59
2023-04-01T10:28:57.264Z,98451.59
2023-04-01T10:34:21.511Z,98448.91
2023-04-01T10:39:31.844Z,98449.47
2023-04-01T10:44:46.411Z,98438.50
2023-04-01T10:50:17.874Z,98446.44
2023-04-01T10:55:38.169Z,98448.59
2023-04-01T11:01:08.773Z,98438.22
2023-04-01T11:06:22.083Z,98449.97
2023-04-01T11:11:56.426Z,98436.88
2023-04-01T11:17:19.972Z,98443.69
2023-04-01T11:22:53.635Z,98445.63
2023-04-01T11:28:21.929Z,98442.34
2023-04-01T11:33:36.997Z,98445.31
2023-04-01T11:38:54.318Z,98459.78
2023-04-01T11:44:21.463Z,98464.75
2023-04-01T11:49:41.058Z,98457.09
2023-04-01T11:54:58.568Z,98462.28
2023-04-01T12:00:27.949Z,98452.72
2023-04-01T12:05:38.509Z,98445.31
2023-04-01T12:10:57.526Z,98450.53
2023-04-01T12:16:23.566Z,98451.38
2023-04-01T12:21:45.379Z,98454.06
2023-04-01T12:27:11.748Z,98454.63
2023-04-01T12:32:30.135Z,98454.34
2023-04-01T12:37:56.157Z,98455.72
2023-04-01T12:43:06.024Z,98457.94
2023-04-01T12:48:34.884Z,98456.25
2023-04-01T12:53:43.496Z,98460.66
2023-04-01T12:58:44.705Z,98458.75
2023-04-01T13:04:21.354Z,98463.38
2023-04-01T13:09:36.027Z,98468.00
2023-04-01T13:15:04.362Z,98465.81
2023-04-01T13:20:19.119Z,98465.31
2023-04-01T13:25:36.196Z,98475.97
2023-04-01T13:30:41.117Z,98478.41
2023-04-01T13:36:09.854Z,98485.81
2023-04-01T13:41:30.943Z,98476.22
2023-04-01T13:46:55.617Z,98475.66
2023-04-01T13:52:19.477Z,98476.22
2023-04-01T13:57:38.347Z,98477.06
2023-04-01T14:02:55.361Z,98478.41
2023-04-01T14:08:18.774Z,98486.59
2023-04-01T14:13:47.009Z,98495.94
2023-04-01T14:18:54.867Z,98482.78
2023-04-01T14:24:08.605Z,98502.47
2023-04-01T14:29:24.966Z,98499.47
2023-04-01T14:34:34.098Z,98499.47
2023-04-01T14:39:45.756Z,98500.00
2023-04-01T14:45:13.394Z,98513.09
2023-04-01T14:50:45.404Z,98524.06
2023-04-01T14:56:00.313Z,98526.81
2023-04-01T15:01:11.763Z,98519.97
2023-04-01T15:06:33.132Z,98529.53
2023-04-01T15:11:47.404Z,98527.91
2023-04-01T15:17:16.187Z,98537.44
2023-04-01T15:22:31.688Z,98539.34
2023-04-01T15:28:19.466Z,98554.41
2023-04-01T15:33:50.669Z,98547.59
2023-04-01T15:38:53.843Z,98555.25
2023-04-01T15:43:55.340Z,98555.25
2023-04-01T15:49:02.757Z,98569.75
2023-04-01T15:54:13.847Z,98568.88
2023-04-01T15:59:36.745Z,98577.38
2023-04-01T16:05:22.914Z,98579.00
2023-04-01T16:11:01.589Z,98579.81
2023-04-01T16:16:11.141Z,98583.94
2023-04-01T16:21:38.739Z,98585.88
2023-04-01T16:26:49.523Z,98592.97
2023-04-01T16:32:12.570Z,98599.25
2023-04-01T16:37:18.101Z,98606.34
2023-04-01T16:42:36.925Z,98612.13
2023-04-01T16:47:46.224Z,98629.03
2023-04-01T16:53:26.355Z,98630.94
2023-04-01T16:58:35.551Z,98651.97
2023-04-01T17:03:42.570Z,98651.97
2023-04-01T17:09:08.499Z,98658.28
2023-04-01T17:14:23.166Z,98666.19
2023-04-01T17:20:01.970Z,98673.31
2023-04-01T17:25:40.248Z,98680.13
2023-04-01T17:30:49.483Z,98682.34
2023-04-01T17:36:17.474Z,98682.34
2023-04-01T17:41:38.126Z,98692.72
2023-04-01T17:46:45.658Z,98695.69
2023-04-01T17:52:20.721Z,98701.72
2023-04-01T17:57:41.479Z,98708.84
2023-04-01T18:03:04.741Z,98710.72
2023-04-01T18:08:09.878Z,98720.31
2023-04-01T18:13:49.859Z,98714.28
2023-04-01T18:19:08.029Z,98722.22
2023-04-01T18:24:15.787Z,98725.22
2023-04-01T18:29:18.777Z,98732.88
2023-04-01T18:34:42.577Z,98741.91
2023-04-01T18:39:48.547Z,98747.38
2023-04-01T18:44:56.955Z,98750.06
2023-04-01T18:50:30.864Z,98759.09
2023-04-01T18:55:52.538Z,98764.31
2023-04-01T19:01:14.972Z,98776.06
2023-04-01T19:06:32.859Z,98783.16
2023-04-01T19:11:59.774Z,98779.88
2023-04-01T19:17:06.390Z,98788.06
2023-04-01T19:22:36.424Z,98788.06
2023-04-01T19:27:42.539Z,98791.88
2023-04-01T19:33:05.367Z,98804.47
2023-04-01T19:38:20.862Z,98801.75
2023-04-01T19:43:31.319Z,98812.94
2023-04-01T19:48:47.797Z,98824.44
2023-04-01T19:53:49.446Z,98831.25
2023-04-01T19:59:08.670Z,98831.25
2023-04-01T20:04:31.184Z,98843.81
2023-04-01T20:09:59.666Z,98856.94
2023-04-01T20:15:02.910Z,98850.63
2023-04-01T20:20:22.477Z,98862.09
2023-04-01T20:25:24.841Z,98875.22
2023-04-01T20:30:37.946Z,98876.06
2023-04-01T20:36:11.487Z,98880.44
2023-04-01T20:41:27.466Z,98876.34
2023-04-01T20:46:56.442Z,98886.97
2023-04-01T20:52:01.242Z,98891.91
2023-04-01T20:57:33.562Z,98901.22
2023-04-01T21:02:49.034Z,98898.19
2023-04-01T21:08:13.849Z,98909.41
2023-04-01T21:13:32.578Z,98911.28
2023-04-01T21:18:56.513Z,98919.25
2023-04-01T21:24:56.044Z,98925.00
2023-04-01T21:30:15.504Z,98936.19
2023-04-01T21:35:32.952Z,98941.63
2023-04-01T21:40:56.371Z,98947.09
2023-04-01T21:46:18.548Z,98950.94
2023-04-01T21:51:42.686Z,98949.84
2023-04-01T21:57:18.517Z,98958.03
2023-04-01T22:02:50.863Z,98956.13
2023-04-01T22:08:04.672Z,98961.88
2023-04-01T22:13:17.734Z,98970.34
2023-04-01T22:18:23.728Z,98971.97
2023-04-01T22:23:29.709Z,98978.81
2023-04-01T22:28:33.671Z,98984.00
2023-04-01T22:33:44.213Z,98987.28
2023-04-01T22:38:57.363Z,98998.78
2023-04-01T22:43:58.762Z,99011.88
2023-04-01T22:49:23.400Z,99017.09
2023-04-01T22:54:33.774Z,99019.81
2023-04-01T22:59:53.481Z,99028.00
2023-04-01T23:05:00.350Z,99033.47
2023-04-01T23:10:02.298Z,99044.41
2023-04-01T23:15:03.964Z,99049.03
2023-04-01T23:20:27.069Z,99052.31
2023-04-01T23:25:40.724Z,99063.00
2023-04-01T23:30:41.976Z,99078.81
2023-04-01T23:36:05.923Z,99083.19
2023-04-01T23:41:07.513Z,99095.22
2023-04-01T23:46:09.289Z,99095.78
2023-04-01T23:51:39.607Z,99108.03
2023-04-01T23:56:44.310Z,99115.16
